Time;durP1;ratioP1;P1;durP2;ratioP2;P2;SDS_P1;SDS_P2;PMS_P1;PMS_P2;Temp;Humidity;BMP_temperature;BMP_pressure;BME280_temperature;BME280_humidity;BME280_pressure;Samples;Min_cycle;Max_cycle;Signal;HPM_P1;HPM_P2
2022/01/22 00:00:23;;;;;;;9.63;3.67;;;0.20;75.10;;;;;;5041279;28;20029;-90
2022/01/22 00:02:49;;;;;;;7.87;2.83;;;0.20;75.10;;;;;;5038946;28;20534;-90
2022/01/22 00:05:17;;;;;;;13.97;3.37;;;0.10;75.10;;;;;;5039813;28;20021;-89
2022/01/22 00:07:43;;;;;;;8.07;2.73;;;0.10;75.00;;;;;;5038560;28;20033;-90
2022/01/22 00:10:14;;;;;;;;;;;0.10;75.10;;;;;;5044655;28;20113;-89
2022/01/22 00:13:06;;;;;;;8.27;2.40;;;0.00;75.20;;;;;;5048303;28;19935;-90
2022/01/22 00:15:30;;;;;;;7.70;2.40;;;0.00;75.00;;;;;;5034518;28;20021;-88
2022/01/22 00:17:57;;;;;;;7.87;2.40;;;0.00;75.10;;;;;;5037928;28;20049;-88
2022/01/22 00:20:26;;;;;;;3.20;1.60;;;0.00;75.20;;;;;;5046863;28;20519;-89
2022/01/22 00:22:52;;;;;;;4.10;1.37;;;0.00;75.20;;;;;;5042495;28;20032;-89
2022/01/22 00:25:21;;;;;;;3.07;1.20;;;-3276.70;75.20;;;;;;5045164;28;20044;-90
2022/01/22 00:27:48;;;;;;;4.93;1.63;;;-3276.70;75.30;;;;;;5047709;28;20025;-89
2022/01/22 00:30:17;;;;;;;3.70;1.47;;;-3276.70;75.30;;;;;;5042427;28;20032;-90
2022/01/22 00:32:43;;;;;;;7.07;1.60;;;-3276.60;75.30;;;;;;5040599;28;20025;-88
2022/01/22 00:35:08;;;;;;;;;;;-3276.50;75.10;;;;;;5048380;28;20024;-89
2022/01/22 00:37:39;;;;;;;12.00;3.30;;;-3276.50;75.20;;;;;;5045033;28;20436;-86
2022/01/22 00:40:05;;;;;;;6.63;2.60;;;-3276.50;75.00;;;;;;5051084;28;20033;-89
2022/01/22 00:42:33;;;;;;;8.93;3.43;;;-3276.50;75.20;;;;;;5047265;28;20063;-88
2022/01/22 00:44:59;;;;;;;7.83;3.07;;;-3276.40;75.20;;;;;;5041095;28;20025;-89
2022/01/22 00:47:25;;;;;;;;;;;-3276.30;75.30;;;;;;5041820;28;20044;-89
2022/01/22 00:49:51;;;;;;;3.03;1.00;;;-3276.30;75.40;;;;;;5045856;28;19961;-90
2022/01/22 00:52:16;;;;;;;;;;;-3276.30;75.10;;;;;;5041978;28;20101;-90
2022/01/22 00:54:44;;;;;;;3.87;1.50;;;-3276.20;75.20;;;;;;5045040;28;19920;-90
2022/01/22 00:57:10;;;;;;;2.47;1.40;;;-3276.20;75.10;;;;;;5037458;28;20031;-89
2022/01/22 00:59:36;;;;;;;;;;;-3276.10;75.20;;;;;;5045798;28;20029;-89
2022/01/22 01:02:02;;;;;;;2.30;0.83;;;-3276.10;75.30;;;;;;5051425;28;19963;-90
2022/01/22 01:04:28;;;;;;;2.80;1.03;;;-3276.00;75.10;;;;;;5044022;28;20032;-90
2022/01/22 01:06:54;;;;;;;1.60;0.90;;;-3276.00;75.20;;;;;;5043800;28;20470;-90
2022/01/22 01:09:20;;;;;;;2.83;0.90;;;-3276.00;75.10;;;;;;5042316;28;20517;-89
2022/01/22 01:11:53;;;;;;;;;;;-3276.00;75.10;;;;;;5046900;28;20033;-89
2022/01/22 01:14:27;;;;;;;1.93;0.93;;;-3276.00;75.10;;;;;;5053427;28;19909;-90
2022/01/22 01:35:30;;;;;;;;;;;-3276.10;74.70;;;;;;5041390;28;20029;-89
2022/01/22 01:37:58;;;;;;;;;;;-3276.10;74.80;;;;;;5041818;28;20365;-89
2022/01/22 01:40:25;;;;;;;9.27;2.10;;;-3276.10;74.80;;;;;;5041654;28;19916;-90
2022/01/22 01:45:23;;;;;;;4.30;1.53;;;-3275.90;75.00;;;;;;5039512;28;20029;-88
2022/01/22 01:48:01;;;;;;;;;;;-3275.90;75.10;;;;;;5038157;28;20090;-89
2022/01/22 01:50:27;;;;;;;9.53;2.43;;;-3275.90;75.20;;;;;;5037645;28;19946;-88
2022/01/22 01:53:24;;;;;;;;;;;-3275.90;74.90;;;;;;5051910;28;20033;-89
2022/01/22 01:58:24;;;;;;;3.33;1.13;;;-3275.80;75.00;;;;;;5051452;28;20025;-89
2022/01/22 02:00:50;;;;;;;6.97;2.47;;;-3275.80;75.20;;;;;;5039318;28;20493;-88
2022/01/22 02:03:16;;;;;;;;;;;-3275.70;75.30;;;;;;5042734;28;20017;-90
2022/01/22 02:05:41;;;;;;;3.87;1.70;;;-3275.80;75.50;;;;;;5038679;28;20000;-88
2022/01/22 02:08:09;;;;;;;;;;;-3275.80;75.30;;;;;;5034250;28;20026;-90
2022/01/22 02:10:40;;;;;;;1.83;1.20;;;-3275.70;75.40;;;;;;5046952;28;19967;-88
2022/01/22 02:24:04;;;;;;;5.57;2.20;;;-3275.50;75.60;;;;;;5049700;28;20450;-90
2022/01/22 02:26:30;;;;;;;3.87;2.33;;;-3275.50;75.60;;;;;;5045519;28;20033;-89
2022/01/22 02:28:56;;;;;;;;;;;-3275.50;75.70;;;;;;5042411;28;20043;-89
2022/01/22 02:31:56;;;;;;;4.03;1.70;;;-3275.40;75.80;;;;;;5041056;28;19941;-89
2022/01/22 02:37:11;;;;;;;6.23;2.97;;;-3275.40;75.50;;;;;;5033969;28;20501;-89
2022/01/22 02:39:41;;;;;;;5.37;2.83;;;-3275.40;75.50;;;;;;5040486;28;20029;-90
2022/01/22 02:42:08;;;;;;;8.73;2.17;;;-3275.40;75.60;;;;;;5044712;28;20081;-89
2022/01/22 02:44:36;;;;;;;5.13;2.27;;;-3275.30;75.60;;;;;;5060695;28;20048;-90
2022/01/22 02:47:05;;;;;;;5.47;2.57;;;-3275.30;75.60;;;;;;5064221;28;20016;-88
2022/01/22 02:49:31;;;;;;;7.27;3.10;;;-3275.30;75.60;;;;;;5065591;28;20009;-89
2022/01/22 02:52:00;;;;;;;;;;;-3275.30;75.60;;;;;;5062773;28;20021;-88
2022/01/22 02:54:26;;;;;;;9.30;4.17;;;-3275.40;75.60;;;;;;5065232;28;19907;-88
2022/01/22 02:56:51;;;;;;;;;;;-3275.40;75.40;;;;;;5078855;28;20037;-89
2022/01/22 02:59:21;;;;;;;10.20;4.30;;;-3275.40;75.40;;;;;;5076279;28;19908;-88
2022/01/22 03:01:47;;;;;;;6.90;3.10;;;-3275.40;75.10;;;;;;5073100;28;20028;-90
2022/01/22 03:04:12;;;;;;;;;;;-3275.30;75.20;;;;;;5041353;28;20025;-89
2022/01/22 03:06:38;;;;;;;11.67;3.50;;;-3275.20;75.40;;;;;;5048665;28;19909;-89
2022/01/22 03:09:07;;;;;;;5.55;2.75;;;-3275.00;75.30;;;;;;5052454;28;20028;-89
2022/01/22 03:11:42;;;;;;;9.40;3.93;;;-3274.90;75.40;;;;;;5049056;28;20025;-89
2022/01/22 03:19:17;;;;;;;;;;;-3274.70;75.80;;;;;;5048493;28;20044;-88
2022/01/22 03:21:57;;;;;;;16.53;5.93;;;-3274.70;75.90;;;;;;5048180;28;19948;-88
2022/01/22 03:27:22;;;;;;;16.50;6.60;;;-3274.50;75.70;;;;;;5045902;28;20424;-89
2022/01/22 03:29:50;;;;;;;12.50;6.07;;;-3274.40;75.70;;;;;;5047387;28;20017;-88
2022/01/22 03:32:16;;;;;;;15.67;7.20;;;-3274.40;75.80;;;;;;5047128;28;20063;-89
2022/01/22 03:34:54;;;;;;;19.30;8.83;;;-3274.30;75.90;;;;;;5043694;28;20030;-87
2022/01/22 03:37:20;;;;;;;23.70;8.70;;;-3274.40;75.90;;;;;;5045039;28;20102;-88
2022/01/22 03:39:45;;;;;;;;;;;-3274.30;75.80;;;;;;5050062;28;20034;-89
2022/01/22 03:42:11;;;;;;;13.20;4.27;;;-3274.30;75.70;;;;;;5046922;28;19905;-90
2022/01/22 03:44:36;;;;;;;;;;;-3274.20;75.40;;;;;;5049341;28;20423;-90
2022/01/22 03:47:02;;;;;;;11.67;5.13;;;-3274.00;75.50;;;;;;5052181;28;19908;-90
2022/01/22 03:49:28;;;;;;;;;;;-3273.80;75.30;;;;;;5047229;28;20048;-87
2022/01/22 03:51:53;;;;;;;13.27;5.00;;;-3273.70;75.40;;;;;;5044395;28;19916;-90
2022/01/22 03:54:19;;;;;;;;;;;-3273.50;75.30;;;;;;5040185;28;20030;-90
2022/01/22 03:56:46;;;;;;;13.83;3.83;;;-3273.30;75.50;;;;;;5048135;28;19991;-89
2022/01/22 03:59:13;;;;;;;9.43;4.33;;;-3273.20;75.40;;;;;;5035876;28;20031;-90
2022/01/22 04:02:09;;;;;;;7.50;3.90;;;-3273.00;75.40;;;;;;5048402;28;20446;-89
2022/01/22 04:04:35;;;;;;;9.83;3.90;;;-3272.80;75.30;;;;;;5042486;28;20548;-90
2022/01/22 04:09:40;;;;;;;10.17;4.40;;;-3272.40;75.30;;;;;;5049634;28;20044;-89
2022/01/22 04:12:07;;;;;;;7.40;3.60;;;-3272.20;75.10;;;;;;5049090;28;20029;-89
2022/01/22 04:14:35;;;;;;;12.77;4.90;;;-3272.00;75.10;;;;;;5046511;28;20537;-89
2022/01/22 04:17:21;;;;;;;11.20;4.93;;;-3271.90;75.10;;;;;;5042489;28;20036;-89
2022/01/22 04:25:28;;;;;;;93.10;32.83;;;-3271.40;75.20;;;;;;4975301;28;20610;-89
2022/01/22 04:27:56;;;;;;;46.77;20.20;;;-3271.30;75.10;;;;;;5046523;28;20393;-88
2022/01/22 04:30:22;;;;;;;45.00;19.33;;;-3271.20;75.10;;;;;;5047052;28;20544;-89
2022/01/22 04:32:48;;;;;;;24.57;12.40;;;-3271.10;75.20;;;;;;5046486;28;20025;-90
2022/01/22 04:35:14;;;;;;;20.83;9.47;;;-3271.00;75.10;;;;;;5044718;28;20029;-89
2022/01/22 04:37:40;;;;;;;10.80;5.37;;;-3270.80;75.10;;;;;;5045696;28;20041;-90
2022/01/22 04:40:07;;;;;;;;;;;-3270.70;74.90;;;;;;5046240;28;20462;-90
2022/01/22 04:42:35;;;;;;;8.23;4.45;;;-3270.60;75.00;;;;;;5045748;28;19909;-89
2022/01/22 04:45:09;;;;;;;13.13;4.67;;;-3270.50;74.80;;;;;;5039333;28;20116;-89
2022/01/22 04:55:29;;;;;;;;;;;-3270.30;75.00;;;;;;5046025;28;20700;-89
2022/01/22 04:57:55;;;;;;;8.53;4.10;;;-3270.40;75.10;;;;;;5041377;28;19932;-89
2022/01/22 05:00:23;;;;;;;;;;;-3270.50;74.90;;;;;;5052218;28;20390;-89
2022/01/22 05:02:50;;;;;;;8.37;4.33;;;-3270.60;75.00;;;;;;5040652;28;19980;-89
2022/01/22 05:05:16;;;;;;;8.10;4.17;;;-3270.80;74.90;;;;;;5048997;28;20063;-90
2022/01/22 05:07:41;;;;;;;9.00;4.87;;;-3270.90;74.90;;;;;;5044607;28;20072;-89
2022/01/22 05:10:08;;;;;;;10.57;4.00;;;-3271.10;74.80;;;;;;5046696;28;20048;-89
2022/01/22 05:12:34;;;;;;;10.37;4.53;;;-3271.20;74.80;;;;;;5042058;28;20078;-89
2022/01/22 05:15:00;;;;;;;8.57;4.73;;;-3271.30;74.70;;;;;;5046431;28;20024;-85
2022/01/22 05:17:26;;;;;;;10.97;5.07;;;-3271.40;74.60;;;;;;5039306;28;20038;-89
2022/01/22 05:20:06;;;;;;;;;;;-3271.50;74.50;;;;;;5045922;28;20116;-89
2022/01/22 05:22:50;;;;;;;7.63;3.53;;;-3271.40;74.40;;;;;;5047277;28;19908;-87
2022/01/22 05:25:34;;;;;;;7.83;3.70;;;-3271.20;74.20;;;;;;5041811;28;20052;-89
2022/01/22 05:38:24;;;;;;;9.33;4.87;;;-3270.80;74.60;;;;;;5045688;28;20040;-90
2022/01/22 05:40:50;;;;;;;15.03;5.93;;;-3270.70;74.50;;;;;;5043831;28;20021;-90
2022/01/22 05:43:15;;;;;;;;;;;-3270.60;74.60;;;;;;5044808;28;20099;-89
2022/01/22 05:45:41;;;;;;;16.80;5.47;;;-3270.50;74.60;;;;;;5044530;28;19920;-90
2022/01/22 05:48:07;;;;;;;10.30;4.77;;;-3270.50;74.40;;;;;;5043672;28;20386;-90
2022/01/22 05:50:43;;;;;;;16.90;5.43;;;-3270.30;74.40;;;;;;5043822;28;20024;-89
2022/01/22 05:53:19;;;;;;;;;;;-3270.30;74.50;;;;;;5042003;28;20039;-89
2022/01/22 06:01:11;;;;;;;12.67;4.90;;;-3270.00;74.40;;;;;;5051042;28;20032;-89
2022/01/22 06:03:37;;;;;;;15.50;5.53;;;-3269.90;74.40;;;;;;5056142;28;20455;-89
2022/01/22 06:06:03;;;;;;;19.63;7.23;;;-3269.70;74.40;;;;;;5063313;28;20334;-89
2022/01/22 06:08:33;;;;;;;20.27;10.00;;;-3269.70;74.60;;;;;;5061064;28;20280;-89
2022/01/22 06:11:07;;;;;;;15.17;7.67;;;-3269.70;74.60;;;;;;5062870;28;20029;-89
2022/01/22 06:13:43;;;;;;;14.57;6.63;;;-3269.60;74.50;;;;;;5059424;28;20021;-89
2022/01/22 06:16:10;;;;;;;12.83;7.40;;;-3269.50;74.50;;;;;;5066094;28;20255;-89
2022/01/22 06:18:36;;;;;;;16.93;6.57;;;-3269.50;74.40;;;;;;5071628;28;20042;-88
2022/01/22 06:21:05;;;;;;;;;;;-3269.40;74.30;;;;;;5055959;28;20295;-88
2022/01/22 06:23:31;;;;;;;14.67;7.17;;;-3269.30;74.40;;;;;;5056256;28;19960;-89
2022/01/22 06:26:00;;;;;;;;;;;-3269.20;74.20;;;;;;5050434;28;20314;-89
2022/01/22 06:28:30;;;;;;;14.80;5.60;;;-3269.20;74.30;;;;;;5048901;28;19955;-87
2022/01/22 06:30:56;;;;;;;10.90;5.97;;;-3269.20;74.10;;;;;;5051699;28;20287;-90
2022/01/22 06:33:22;;;;;;;16.37;6.53;;;-3269.20;74.20;;;;;;5050435;28;20302;-89
2022/01/22 06:35:48;;;;;;;17.63;6.13;;;-3269.30;74.30;;;;;;5041229;28;20788;-89
2022/01/22 06:38:14;;;;;;;17.40;8.73;;;-3269.30;74.30;;;;;;5049023;28;20290;-89
2022/01/22 06:43:05;;;;;;;16.70;4.53;;;-3269.70;74.60;;;;;;5050047;28;19916;-88
2022/01/22 06:45:31;;;;;;;9.33;5.40;;;-3270.00;74.60;;;;;;5045244;28;20053;-90
2022/01/22 06:47:56;;;;;;;;;;;-3270.30;74.60;;;;;;5038662;28;20367;-90
2022/01/22 06:50:22;;;;;;;17.70;6.60;;;-3270.60;74.60;;;;;;5036440;28;19909;-90
2022/01/22 06:52:55;;;;;;;;;;;-3270.90;74.80;;;;;;5044945;28;20029;-89
2022/01/22 06:55:28;;;;;;;10.20;4.73;;;-3271.20;75.00;;;;;;5039575;28;19944;-90
2022/01/22 06:57:54;;;;;;;35.57;13.77;;;-3271.40;75.00;;;;;;5044327;28;20037;-89
2022/01/22 07:00:19;;;;;;;81.00;24.37;;;-3271.70;75.20;;;;;;5042076;28;20036;-90
2022/01/22 07:02:45;;;;;;;;;;;-3272.00;75.20;;;;;;5046149;28;20131;-90
2022/01/22 07:05:10;;;;;;;48.83;17.70;;;-3272.20;75.40;;;;;;5045674;28;19913;-89
2022/01/22 07:07:36;;;;;;;;;;;-3272.40;75.20;;;;;;5043248;28;20033;-88
2022/01/22 07:10:03;;;;;;;18.63;5.43;;;-3272.60;75.20;;;;;;5041486;28;19949;-89
2022/01/22 07:12:28;;;;;;;43.30;18.67;;;-3272.70;75.20;;;;;;5045691;28;20384;-89
2022/01/22 07:14:55;;;;;;;;;;;-3272.80;75.40;;;;;;5045429;28;20108;-89
2022/01/22 07:17:20;;;;;;;28.70;12.20;;;-3272.90;75.40;;;;;;5056745;28;19913;-89
2022/01/22 07:19:46;;;;;;;;;;;-3273.00;75.40;;;;;;5043735;28;20033;-89
2022/01/22 07:22:35;;;;;;;14.17;7.40;;;-3273.10;75.50;;;;;;5042327;28;19992;-88
2022/01/22 07:25:01;;;;;;;21.47;11.27;;;-3273.20;75.50;;;;;;5043760;28;20034;-89
2022/01/22 07:27:26;;;;;;;;;;;-3273.10;75.70;;;;;;5046953;28;20074;-89
2022/01/22 07:29:54;;;;;;;24.80;11.17;;;-3273.20;75.90;;;;;;5044665;28;19994;-89
2022/01/22 07:32:43;;;;;;;29.77;11.67;;;-3273.30;75.80;;;;;;5043763;28;20487;-88
2022/01/22 07:35:06;;;;;;;37.77;13.97;;;-3273.30;75.90;;;;;;5040360;28;20401;-89
2022/01/22 07:37:31;;;;;;;;;;;-3273.50;75.90;;;;;;5044217;28;20117;-89
2022/01/22 07:39:57;;;;;;;106.77;35.40;;;-3273.50;75.90;;;;;;5050584;28;19905;-89
2022/01/22 07:42:23;;;;;;;143.80;48.93;;;-3273.60;75.70;;;;;;5052239;28;20028;-89
2022/01/22 07:44:48;;;;;;;;;;;-3273.70;75.80;;;;;;5048778;28;20103;-89
2022/01/22 07:47:14;;;;;;;88.53;32.37;;;-3273.80;75.90;;;;;;5046047;28;19968;-89
2022/01/22 07:49:40;;;;;;;;;;;-3273.90;75.70;;;;;;5040835;28;22139;-93
2022/01/22 07:52:06;;;;;;;34.23;19.77;;;-3274.10;75.80;;;;;;5048126;28;19917;-90
2022/01/22 07:54:32;;;;;;;;;;;-3274.20;75.60;;;;;;5051158;28;20028;-91
2022/01/22 07:56:59;;;;;;;26.35;10.82;;;-3274.30;75.80;;;;;;5046999;28;19931;-92
2022/01/22 07:59:24;;;;;;;24.00;9.37;;;-3274.50;75.80;;;;;;5047967;28;20025;-90
2022/01/22 08:01:53;;;;;;;;;;;-3274.70;75.80;;;;;;5048459;28;20017;-89
2022/01/22 08:04:23;;;;;;;21.03;10.50;;;-3274.90;75.80;;;;;;5047125;28;19912;-88
2022/01/22 08:06:49;;;;;;;14.37;6.53;;;-3275.10;75.70;;;;;;5040795;28;20037;-88
2022/01/22 08:09:15;;;;;;;19.77;6.73;;;-3275.30;75.70;;;;;;5040058;28;20144;-89
2022/01/22 08:11:41;;;;;;;;;;;-3275.50;75.90;;;;;;5047119;28;20053;-88
2022/01/22 08:14:10;;;;;;;15.87;7.37;;;-3275.70;75.80;;;;;;5047234;28;19920;-89
2022/01/22 08:16:37;;;;;;;13.43;6.00;;;-3275.90;75.60;;;;;;5042606;28;20030;-88
2022/01/22 08:19:04;;;;;;;17.77;6.70;;;-3276.00;75.40;;;;;;5047861;28;20029;-87
2022/01/22 08:21:30;;;;;;;16.13;6.93;;;-3276.10;75.40;;;;;;5046959;28;20374;-91
2022/01/22 08:23:55;;;;;;;10.53;5.13;;;-3276.20;75.40;;;;;;5051455;28;20033;-90
2022/01/22 08:26:26;;;;;;;;;;;-3276.30;75.30;;;;;;5052436;28;20033;-92
2022/01/22 08:28:57;;;;;;;13.77;5.93;;;-3276.30;75.30;;;;;;5045729;28;20000;-90
2022/01/22 08:31:39;;;;;;;13.30;5.37;;;-3276.30;75.00;;;;;;5051269;28;20029;-84
2022/01/22 08:36:50;;;;;;;16.93;7.20;;;-3276.40;75.20;;;;;;5053011;28;20405;-88
2022/01/22 08:39:17;;;;;;;16.37;7.40;;;-3276.50;75.10;;;;;;5043796;28;20021;-91
2022/01/22 08:41:44;;;;;;;9.40;4.10;;;-3276.70;75.00;;;;;;5049991;28;20029;-93
2022/01/22 08:44:10;;;;;;;16.07;6.93;;;0.00;74.70;;;;;;5043803;28;20029;-93
2022/01/22 08:46:37;;;;;;;51.83;16.67;;;0.00;74.50;;;;;;5049469;28;20434;-94
2022/01/22 08:49:04;;;;;;;23.17;7.03;;;0.10;74.30;;;;;;5059813;28;20120;-94
2022/01/22 08:51:35;;;;;;;36.73;12.93;;;0.20;74.20;;;;;;5052703;28;20478;-92
2022/01/22 08:54:01;;;;;;;42.73;18.30;;;0.30;73.90;;;;;;5052453;28;20115;-87
2022/01/22 08:56:27;;;;;;;;;;;0.40;73.50;;;;;;5045370;28;20022;-88
2022/01/22 08:58:53;;;;;;;23.00;12.30;;;0.40;73.30;;;;;;5038631;28;19909;-88
2022/01/22 09:01:19;;;;;;;;;;;0.50;72.80;;;;;;5048192;28;20040;-90
2022/01/22 09:03:45;;;;;;;7.50;3.97;;;0.60;72.70;;;;;;5042694;28;19999;-90
2022/01/22 09:06:11;;;;;;;18.13;6.87;;;0.60;72.20;;;;;;5036719;28;20390;-91
2022/01/22 09:08:38;;;;;;;36.40;14.70;;;0.70;72.10;;;;;;5054701;28;20115;-90
2022/01/22 09:11:04;;;;;;;18.07;8.23;;;0.70;72.00;;;;;;5042916;28;20029;-89
2022/01/22 09:13:30;;;;;;;;;;;0.80;72.00;;;;;;5037538;28;20032;-86
2022/01/22 09:15:56;;;;;;;18.40;7.73;;;0.80;71.60;;;;;;5051772;28;19909;-86
2022/01/22 09:18:22;;;;;;;;;;;0.80;71.10;;;;;;5049441;28;20519;-86
2022/01/22 09:23:13;;;;;;;;;;;0.80;70.90;;;;;;5049064;28;20029;-84
2022/01/22 09:25:43;;;;;;;16.17;6.17;;;0.90;70.50;;;;;;5050367;28;19928;-84
2022/01/22 09:28:13;;;;;;;12.20;5.17;;;0.80;70.30;;;;;;5059048;28;20029;-84
2022/01/22 09:30:40;;;;;;;12.73;5.83;;;0.80;70.10;;;;;;5066579;28;20013;-84
2022/01/22 09:33:06;;;;;;;12.67;6.67;;;0.80;70.20;;;;;;5058157;28;20052;-87
2022/01/22 09:35:32;;;;;;;18.70;8.87;;;0.80;70.00;;;;;;5059665;28;20057;-87
2022/01/22 09:37:58;;;;;;;;;;;0.80;69.80;;;;;;5067037;28;20013;-87
2022/01/22 09:40:28;;;;;;;9.00;4.57;;;0.90;69.70;;;;;;5072330;28;19913;-88
2022/01/22 09:42:54;;;;;;;9.50;4.47;;;0.90;69.30;;;;;;5065664;28;20025;-89
2022/01/22 09:45:21;;;;;;;;;;;0.90;69.40;;;;;;5066833;28;20440;-92
2022/01/22 09:47:47;;;;;;;;;;;1.00;69.40;;;;;;5052804;28;20314;-87
2022/01/22 09:50:15;;;;;;;13.80;5.93;;;1.00;69.00;;;;;;5060504;28;19991;-87
2022/01/22 09:52:41;;;;;;;11.70;5.60;;;1.10;68.80;;;;;;5043395;28;20079;-87
2022/01/22 09:55:08;;;;;;;8.23;4.37;;;1.10;68.50;;;;;;5040063;28;20108;-87
2022/01/22 09:57:36;;;;;;;13.33;5.33;;;1.20;68.80;;;;;;5036432;28;20025;-88
2022/01/22 10:00:03;;;;;;;6.40;3.80;;;1.30;68.90;;;;;;5042716;28;20131;-91
2022/01/22 10:02:28;;;;;;;12.80;6.00;;;1.40;68.60;;;;;;5045624;28;20151;-87
2022/01/22 10:04:55;;;;;;;;;;;1.50;68.20;;;;;;5049020;28;20060;-87
2022/01/22 10:07:23;;;;;;;13.38;5.43;;;1.60;68.30;;;;;;5043649;28;19910;-88
2022/01/22 10:10:00;;;;;;;11.17;4.10;;;1.70;67.90;;;;;;5042704;28;20136;-88
2022/01/22 10:12:29;;;;;;;7.57;3.63;;;1.80;67.70;;;;;;5041119;28;20171;-87
2022/01/22 10:15:11;;;;;;;13.30;5.07;;;1.80;67.40;;;;;;5044394;28;20039;-87
2022/01/22 10:17:55;;;;;;;11.37;4.90;;;1.80;67.40;;;;;;5040915;28;20050;-87
2022/01/22 10:20:21;;;;;;;17.47;5.83;;;1.80;66.90;;;;;;5037003;28;20547;-87
2022/01/22 10:22:47;;;;;;;;;;;1.80;66.70;;;;;;5049437;28;20033;-89
2022/01/22 10:25:25;;;;;;;12.07;5.00;;;1.80;67.00;;;;;;5046275;28;19912;-87
2022/01/22 10:28:01;;;;;;;7.20;3.13;;;1.80;66.60;;;;;;5038671;28;20018;-87
2022/01/22 10:36:10;;;;;;;16.40;6.13;;;1.80;67.00;;;;;;5046934;28;20034;-87
2022/01/22 10:38:43;;;;;;;12.60;4.23;;;1.90;67.00;;;;;;5047031;28;20052;-87
2022/01/22 10:41:09;;;;;;;12.30;4.47;;;1.90;66.90;;;;;;5043061;28;20021;-88
2022/01/22 10:43:41;;;;;;;;;;;1.90;66.60;;;;;;5044530;28;20497;-88
2022/01/22 10:46:09;;;;;;;11.00;5.10;;;1.90;66.90;;;;;;5047535;28;19909;-87
2022/01/22 10:48:54;;;;;;;7.67;3.83;;;2.00;66.80;;;;;;5040123;28;20059;-87
2022/01/22 10:51:20;;;;;;;11.27;4.17;;;1.90;66.70;;;;;;5035753;28;20037;-87
2022/01/22 10:53:50;;;;;;;;;;;1.90;66.50;;;;;;5047434;28;20040;-85
2022/01/22 10:56:22;;;;;;;18.90;5.53;;;1.80;66.50;;;;;;5042304;28;19913;-87
2022/01/22 10:59:16;;;;;;;16.30;5.57;;;1.80;66.60;;;;;;5040645;28;20025;-85
2022/01/22 11:01:59;;;;;;;9.60;3.33;;;1.80;66.90;;;;;;5041215;28;20029;-85
2022/01/22 11:04:27;;;;;;;11.83;4.57;;;1.90;66.40;;;;;;5041336;28;20078;-87
2022/01/22 11:06:56;;;;;;;10.83;4.07;;;2.00;66.00;;;;;;5041725;28;20062;-86
2022/01/22 11:09:23;;;;;;;13.07;4.77;;;2.30;65.40;;;;;;5048067;28;20386;-88
2022/01/22 11:11:49;;;;;;;16.60;5.03;;;2.50;65.00;;;;;;5047059;28;20733;-86
2022/01/22 11:14:16;;;;;;;12.37;5.37;;;2.70;65.00;;;;;;5039812;28;20033;-87
2022/01/22 11:16:44;;;;;;;13.17;4.40;;;2.90;64.00;;;;;;5043668;28;20367;-87
2022/01/22 11:19:13;;;;;;;15.50;5.57;;;3.00;63.50;;;;;;5046312;28;20117;-88
2022/01/22 11:21:44;;;;;;;11.70;4.77;;;3.00;63.20;;;;;;5046263;28;20458;-88
2022/01/22 11:24:16;;;;;;;10.17;3.87;;;3.10;63.30;;;;;;5059039;28;20025;-88
2022/01/22 11:26:54;;;;;;;11.60;5.07;;;3.20;62.50;;;;;;5055217;28;20094;-89
2022/01/22 11:29:31;;;;;;;16.10;5.53;;;3.20;62.30;;;;;;5046223;28;20026;-88
2022/01/22 11:32:00;;;;;;;11.77;4.70;;;3.20;62.00;;;;;;5052072;28;20021;-89
2022/01/22 11:34:32;;;;;;;10.40;3.80;;;3.10;62.10;;;;;;5045458;28;20024;-86
2022/01/22 11:37:05;;;;;;;11.70;4.33;;;3.00;62.10;;;;;;5049850;28;20017;-85
2022/01/22 11:39:31;;;;;;;12.63;5.30;;;2.90;62.20;;;;;;5040843;28;20025;-88
2022/01/22 11:41:58;;;;;;;;;;;3.30;62.30;;;;;;5046464;28;20071;-88
2022/01/22 11:44:40;;;;;;;11.50;3.22;;;3.60;62.00;;;;;;5046603;28;20408;-88
2022/01/22 11:47:17;;;;;;;13.87;4.83;;;3.70;61.20;;;;;;5046585;28;20030;-87
2022/01/22 11:50:09;;;;;;;14.57;4.83;;;3.50;61.30;;;;;;5046097;28;20083;-86
2022/01/22 11:52:40;;;;;;;14.67;4.73;;;3.30;62.30;;;;;;5044769;28;20393;-87
2022/01/22 11:55:12;;;;;;;10.73;4.47;;;3.20;62.50;;;;;;5051989;28;20040;-88
2022/01/22 11:57:40;;;;;;;10.73;4.90;;;3.00;62.90;;;;;;5046697;28;20087;-87
2022/01/22 12:00:27;;;;;;;11.53;4.93;;;2.80;63.30;;;;;;5046001;28;20067;-87
2022/01/22 12:03:08;;;;;;;13.93;5.37;;;2.70;63.50;;;;;;5039555;28;20025;-85
2022/01/22 12:05:55;;;;;;;14.20;5.93;;;2.60;63.80;;;;;;5044913;28;20026;-88
2022/01/22 12:08:24;;;;;;;18.50;6.25;;;2.50;64.00;;;;;;5040986;28;20025;-87
2022/01/22 12:16:44;;;;;;;12.93;5.17;;;2.40;64.20;;;;;;5046533;28;20059;-87
2022/01/22 12:19:49;;;;;;;14.43;4.83;;;2.50;63.90;;;;;;5038463;28;20025;-87
2022/01/22 12:22:34;;;;;;;7.27;2.43;;;2.50;63.60;;;;;;5049704;28;20101;-88
2022/01/22 12:25:08;;;;;;;12.40;4.10;;;2.60;63.50;;;;;;5046972;28;20068;-88
2022/01/22 12:27:43;;;;;;;14.40;5.80;;;2.60;63.50;;;;;;5049265;28;20064;-88
2022/01/22 12:30:09;;;;;;;15.97;7.03;;;2.60;63.60;;;;;;5048103;28;20044;-87
2022/01/22 12:32:45;;;;;;;;;;;2.60;63.70;;;;;;5049175;28;20036;-88
2022/01/22 12:35:17;;;;;;;10.93;3.33;;;2.60;63.60;;;;;;5043563;28;19932;-88
2022/01/22 12:37:48;;;;;;;11.67;5.10;;;2.60;63.30;;;;;;5063424;28;20045;-86
2022/01/22 12:40:28;;;;;;;8.03;3.00;;;2.50;63.20;;;;;;5039258;28;20036;-87
2022/01/22 12:43:07;;;;;;;13.27;4.63;;;2.40;63.10;;;;;;5065686;28;20017;-86
2022/01/22 12:45:40;;;;;;;8.17;3.10;;;2.30;63.40;;;;;;5054619;28;20025;-86
2022/01/22 12:48:12;;;;;;;11.37;4.90;;;2.30;63.50;;;;;;5069056;28;20040;-86
2022/01/22 12:50:37;;;;;;;13.10;4.63;;;2.20;63.50;;;;;;5053199;28;20027;-86
2022/01/22 12:53:11;;;;;;;;;;;2.10;63.80;;;;;;5051571;28;20521;-87
2022/01/22 12:56:00;;;;;;;11.97;3.70;;;2.10;63.90;;;;;;5052351;28;19980;-86
2022/01/22 12:58:29;;;;;;;8.97;4.07;;;2.10;63.70;;;;;;5050562;28;20021;-87
2022/01/22 13:01:13;;;;;;;14.73;5.07;;;2.00;63.50;;;;;;5044402;28;20022;-87
2022/01/22 13:03:42;;;;;;;17.17;5.43;;;1.90;63.90;;;;;;5049122;28;20037;-87
2022/01/22 13:06:08;;;;;;;17.13;5.97;;;1.80;64.00;;;;;;5040811;28;20453;-87
2022/01/22 13:08:34;;;;;;;;;;;1.90;64.20;;;;;;5053141;28;20065;-86
2022/01/22 13:11:02;;;;;;;13.73;4.57;;;1.80;64.30;;;;;;5044314;28;19908;-86
2022/01/22 13:13:29;;;;;;;14.03;4.93;;;1.90;64.20;;;;;;5046459;28;20025;-87
2022/01/22 13:16:07;;;;;;;14.60;5.20;;;1.80;64.30;;;;;;5041397;28;20036;-88
2022/01/22 13:18:43;;;;;;;16.73;5.67;;;1.80;64.40;;;;;;5041512;28;20036;-88
2022/01/22 13:21:10;;;;;;;11.10;4.35;;;1.80;64.50;;;;;;5045844;28;20025;-87
2022/01/22 13:23:37;;;;;;;10.17;4.30;;;1.80;64.60;;;;;;5047385;28;20040;-86
2022/01/22 13:26:03;;;;;;;10.00;4.10;;;1.80;64.50;;;;;;5044824;28;20128;-88
2022/01/22 13:28:31;;;;;;;;;;;1.80;64.30;;;;;;5046498;28;20219;-88
2022/01/22 13:31:17;;;;;;;9.60;3.57;;;1.80;64.20;;;;;;5045331;28;19923;-88
2022/01/22 13:33:59;;;;;;;13.47;4.60;;;1.80;64.10;;;;;;5041860;28;20167;-87
2022/01/22 13:36:52;;;;;;;11.13;4.47;;;1.80;64.20;;;;;;5042635;28;20060;-86
2022/01/22 13:49:55;;;;;;;13.70;5.07;;;1.60;64.30;;;;;;5045710;28;20052;-85
2022/01/22 13:52:26;;;;;;;;;;;1.60;64.30;;;;;;5047301;28;20436;-86
2022/01/22 13:54:54;;;;;;;14.80;4.40;;;1.60;64.40;;;;;;5040280;28;19913;-86
2022/01/22 13:57:31;;;;;;;8.87;3.03;;;1.60;64.10;;;;;;5037829;28;20071;-87
2022/01/22 13:59:57;;;;;;;14.93;5.17;;;1.50;64.30;;;;;;5042029;28;20029;-86
2022/01/22 14:05:08;;;;;;;13.88;3.90;;;1.40;64.50;;;;;;5054680;28;19905;-91
2022/01/22 14:07:40;;;;;;;10.97;4.40;;;1.40;64.40;;;;;;5038503;28;20032;-92
2022/01/22 14:10:09;;;;;;;9.33;5.73;;;1.30;64.60;;;;;;5050101;28;20036;-92
2022/01/22 14:12:47;;;;;;;13.20;4.60;;;1.30;64.80;;;;;;5041556;28;20037;-92
2022/01/22 14:15:21;;;;;;;13.23;5.33;;;1.30;64.90;;;;;;5046610;28;20025;-91
2022/01/22 14:17:54;;;;;;;13.30;5.37;;;1.20;65.00;;;;;;5052307;28;20122;-91
2022/01/22 14:20:27;;;;;;;9.23;4.30;;;1.20;65.10;;;;;;5048138;28;20025;-91
2022/01/22 14:23:01;;;;;;;16.30;6.03;;;1.20;65.20;;;;;;5040965;28;20029;-90
2022/01/22 14:25:27;;;;;;;19.90;6.57;;;1.10;65.30;;;;;;5046755;28;20021;-91
2022/01/22 14:28:04;;;;;;;17.53;6.77;;;1.10;65.40;;;;;;5043725;28;20032;-90
2022/01/22 14:30:45;;;;;;;21.02;7.00;;;1.00;65.50;;;;;;5042751;28;20022;-90
2022/01/22 14:33:15;;;;;;;23.33;8.10;;;1.10;65.60;;;;;;5039016;28;20976;-89
2022/01/22 14:35:43;;;;;;;29.40;8.70;;;1.10;65.70;;;;;;5042744;28;20033;-89
2022/01/22 14:38:24;;;;;;;22.93;8.13;;;1.10;65.80;;;;;;5047013;28;20109;-89
2022/01/22 14:44:33;;;;;;;23.43;9.17;;;1.10;66.00;;;;;;5046824;28;20114;-89
2022/01/22 14:46:53;;;;;;;17.93;5.40;;;1.00;65.90;;;;;;5042230;28;20040;-89
2022/01/22 14:49:38;;;;;;;14.63;7.00;;;1.00;66.00;;;;;;5046295;28;20029;-89
2022/01/22 14:52:05;;;;;;;19.43;6.37;;;1.00;66.10;;;;;;5044998;28;20025;-91